Time;durP1;ratioP1;P1;durP2;ratioP2;P2;SDS_P1;SDS_P2;PMS_P1;PMS_P2;Temp;Humidity;BMP_temperature;BMP_pressure;BME280_temperature;BME280_humidity;BME280_pressure;Samples;Min_cycle;Max_cycle;Signal;HPM_P1;HPM_P2
2020/12/23 00:01:59;;;;;;;27.27;16.00;;;12.40;99.20;;;12.09;88.72;100305.31;4975939;28;20125;-86
2020/12/23 00:04:26;;;;;;;32.60;17.38;;;12.50;99.40;;;12.10;88.38;100301.53;4976066;28;20046;-86
2020/12/23 00:06:53;;;;;;;31.00;17.75;;;12.50;99.20;;;12.11;88.84;100307.84;4976230;28;20118;-86
2020/12/23 00:09:19;;;;;;;25.13;15.88;;;12.50;99.30;;;12.10;88.90;100300.69;4976038;28;20101;-86
2020/12/23 00:11:52;;;;;;;23.65;14.65;;;12.50;99.20;;;12.10;88.75;100285.16;4975694;28;20125;-86
2020/12/23 00:14:20;;;;;;;24.65;15.80;;;12.50;99.30;;;12.11;88.56;100286.03;4976132;28;20051;-86
2020/12/23 00:16:48;;;;;;;29.13;16.77;;;12.60;99.30;;;12.13;88.53;100303.88;4976198;28;20042;-86
2020/12/23 00:19:14;;;;;;;31.85;17.88;;;12.60;99.30;;;12.12;89.23;100307.63;4974526;28;20150;-86
2020/12/23 00:21:42;;;;;;;31.92;16.75;;;12.60;99.40;;;12.13;88.67;100295.69;4975742;28;20063;-86
2020/12/23 00:24:08;;;;;;;30.63;17.80;;;12.60;99.50;;;12.16;88.55;100282.69;4976304;28;20177;-86
2020/12/23 00:26:35;;;;;;;35.38;19.05;;;12.60;99.40;;;12.16;89.16;100283.53;4975597;28;20133;-86
2020/12/23 00:29:02;;;;;;;31.23;17.52;;;12.70;99.90;;;12.15;89.98;100291.91;4975721;28;20586;-86
2020/12/23 00:31:29;;;;;;;28.42;16.33;;;12.70;99.60;;;12.16;89.74;100288.16;4974271;28;20126;-86
2020/12/23 00:33:57;;;;;;;30.38;16.40;;;12.70;99.50;;;12.17;89.84;100289.84;4975584;28;20141;-86
2020/12/23 00:36:23;;;;;;;29.33;17.02;;;12.70;99.40;;;12.16;90.44;100279.97;4975275;28;20050;-86
2020/12/23 00:38:50;;;;;;;31.17;16.48;;;12.80;99.50;;;12.19;89.75;100276.84;4974713;28;20125;-86
2020/12/23 00:41:17;;;;;;;28.73;16.63;;;12.80;99.80;;;12.19;90.05;100269.50;4975272;28;20047;-86
2020/12/23 00:43:44;;;;;;;34.15;16.30;;;12.80;99.40;;;12.20;89.91;100273.06;4975720;28;20050;-86
2020/12/23 00:46:12;;;;;;;30.95;16.05;;;12.80;99.30;;;12.19;90.46;100260.47;4975506;28;20043;-86
2020/12/23 00:48:39;;;;;;;30.70;16.77;;;12.80;99.50;;;12.17;91.05;100273.47;4975299;28;20046;-86
2020/12/23 00:51:11;;;;;;;28.20;14.80;;;12.90;99.90;;;12.19;90.91;100269.50;4957327;28;20423;-86
2020/12/23 00:53:38;;;;;;;25.05;14.45;;;12.90;99.90;;;12.19;92.05;100274.94;4957701;28;20084;-86
2020/12/23 00:56:05;;;;;;;26.23;12.82;;;12.90;99.90;;;12.17;92.22;100284.41;4975310;28;20038;-86
2020/12/23 00:58:32;;;;;;;22.30;12.05;;;12.90;99.90;;;12.06;93.75;100293.97;4975268;28;20053;-86
2020/12/23 01:00:59;;;;;;;27.45;13.80;;;13.00;99.90;;;12.11;92.61;100286.03;4974956;28;20078;-86
2020/12/23 01:03:26;;;;;;;22.85;12.48;;;12.90;99.90;;;12.13;92.29;100284.78;4974991;28;20121;-86
2020/12/23 01:05:53;;;;;;;24.98;12.20;;;12.90;99.80;;;12.19;91.94;100276.84;4957877;28;20074;-86
2020/12/23 01:08:21;;;;;;;21.25;12.10;;;12.90;99.80;;;12.23;91.53;100272.66;4974911;28;20746;-86
2020/12/23 01:10:48;;;;;;;27.77;12.77;;;12.90;99.70;;;12.23;91.97;100269.94;4974825;28;20039;-86
2020/12/23 01:13:15;;;;;;;19.92;10.95;;;12.90;99.50;;;12.23;91.65;100273.50;4974612;28;20082;-86
2020/12/23 01:15:43;;;;;;;22.30;11.88;;;12.90;99.50;;;12.24;91.78;100285.25;4974793;28;20129;-86
2020/12/23 01:18:10;;;;;;;22.73;11.32;;;12.90;99.40;;;12.26;91.36;100283.16;4955437;29;20118;-86
2020/12/23 01:20:36;;;;;;;21.77;10.20;;;12.90;99.40;;;12.25;91.42;100286.94;4955510;29;20473;-87
2020/12/23 01:23:03;;;;;;;15.75;9.65;;;13.00;99.50;;;12.26;91.55;100300.41;4955433;28;20086;-86
2020/12/23 01:25:31;;;;;;;26.67;11.68;;;12.90;99.50;;;12.25;91.44;100303.31;4955600;29;20074;-86
2020/12/23 01:27:57;;;;;;;26.52;11.77;;;13.00;99.40;;;12.25;91.54;100301.44;4955441;29;20067;-86
2020/12/23 01:30:24;;;;;;;22.52;11.02;;;13.00;99.30;;;12.27;91.18;100290.31;4955445;29;20081;-86
2020/12/23 01:32:51;;;;;;;21.48;11.45;;;13.00;99.50;;;12.30;91.31;100295.38;4955232;28;20043;-86
2020/12/23 01:35:18;;;;;;;19.55;10.95;;;13.00;99.60;;;12.32;91.39;100304.22;4955625;29;20054;-86
2020/12/23 01:37:44;;;;;;;22.33;11.02;;;13.00;99.60;;;12.31;91.18;100310.69;4955328;29;20116;-86
2020/12/23 01:40:13;;;;;;;29.08;12.77;;;13.00;99.50;;;12.30;90.92;100307.13;4955537;29;20174;-86
2020/12/23 01:42:41;;;;;;;21.23;10.48;;;13.00;99.60;;;12.35;90.49;100313.88;4954678;28;20074;-86
2020/12/23 01:45:08;;;;;;;22.27;10.68;;;13.00;99.60;;;12.36;90.59;100315.56;4954982;29;20074;-86
2020/12/23 01:47:36;;;;;;;20.75;10.25;;;13.00;99.60;;;12.37;90.20;100312.59;4954967;29;20095;-86
2020/12/23 01:50:04;;;;;;;22.05;10.27;;;13.00;99.60;;;12.37;90.15;100314.50;4954695;29;20055;-86
2020/12/23 01:52:30;;;;;;;20.13;10.45;;;13.00;99.60;;;12.36;90.34;100313.66;4954418;28;20043;-86
2020/12/23 01:54:59;;;;;;;21.73;10.93;;;13.00;99.50;;;12.36;90.64;100316.41;4954962;29;20071;-86
2020/12/23 01:57:26;;;;;;;22.27;12.07;;;13.00;99.70;;;12.38;90.52;100325.22;4954549;29;20071;-86
2020/12/23 01:59:54;;;;;;;24.08;13.00;;;13.00;99.70;;;12.36;90.63;100324.59;4954924;29;20126;-86
2020/12/23 02:02:31;;;;;;;23.55;12.15;;;13.00;99.70;;;12.38;90.47;100314.31;4954346;28;20098;-86
2020/12/23 02:05:00;;;;;;;23.23;13.18;;;13.00;99.70;;;12.39;90.70;100326.06;4954872;29;20070;-86
2020/12/23 02:07:28;;;;;;;24.92;13.43;;;13.00;99.80;;;12.37;90.62;100312.59;4937519;29;20051;-86
2020/12/23 02:09:58;;;;;;;28.33;14.32;;;13.00;99.80;;;12.36;90.64;100305.47;4954752;29;20125;-86
2020/12/23 02:12:25;;;;;;;24.33;13.13;;;13.00;99.60;;;12.37;90.71;100309.88;4954474;28;20047;-86
2020/12/23 02:14:54;;;;;;;26.20;13.60;;;13.00;99.60;;;12.37;90.70;100307.16;4954769;29;20404;-86
2020/12/23 02:17:22;;;;;;;23.33;13.57;;;13.00;99.70;;;12.39;90.78;100294.16;4954619;29;20039;-86
2020/12/23 02:19:52;;;;;;;24.08;14.20;;;13.00;99.60;;;12.39;90.51;100305.06;4954533;29;20137;-86
2020/12/23 02:22:21;;;;;;;22.30;13.88;;;13.00;99.70;;;12.38;90.76;100297.94;4954294;28;20145;-86
2020/12/23 02:24:51;;;;;;;21.65;13.13;;;13.00;99.60;;;12.38;90.76;100302.56;4954416;29;20453;-86
2020/12/23 02:27:20;;;;;;;25.17;14.48;;;13.00;99.60;;;12.39;90.83;100307.78;4954112;29;20050;-86
2020/12/23 02:29:49;;;;;;;27.30;14.57;;;13.00;99.70;;;12.41;90.24;100300.25;4954087;29;20087;-86
2020/12/23 02:32:16;;;;;;;26.00;14.85;;;13.00;99.70;;;12.42;90.56;100291.03;4953899;28;20130;-86
2020/12/23 02:34:43;;;;;;;25.30;13.60;;;13.00;99.80;;;12.42;90.38;100288.28;4954355;29;20119;-86
2020/12/23 02:37:11;;;;;;;25.17;13.35;;;13.00;99.70;;;12.43;90.18;100278.22;4954008;29;20150;-86
2020/12/23 02:39:39;;;;;;;31.08;14.45;;;13.00;99.70;;;12.42;90.31;100276.53;4954335;29;20134;-86
2020/12/23 02:42:08;;;;;;;28.05;14.88;;;13.00;99.80;;;12.42;90.66;100271.09;4953714;28;20122;-86
2020/12/23 02:44:35;;;;;;;27.92;15.32;;;13.00;99.70;;;12.42;90.33;100266.47;4954077;29;20126;-86
2020/12/23 02:47:04;;;;;;;25.20;14.20;;;13.00;99.80;;;12.42;90.33;100255.53;4954098;29;20067;-86
2020/12/23 02:49:31;;;;;;;29.77;15.25;;;13.00;99.70;;;12.42;90.29;100255.53;4954070;29;20058;-86
2020/12/23 02:51:58;;;;;;;25.55;14.95;;;13.00;99.80;;;12.41;90.73;100253.84;4954046;28;20143;-85
2020/12/23 02:54:25;;;;;;;24.38;14.77;;;13.00;99.70;;;12.41;91.04;100247.56;4954049;29;20519;-86
2020/12/23 02:56:52;;;;;;;28.80;14.25;;;13.00;99.70;;;12.41;90.51;100237.47;4954070;29;20058;-86
2020/12/23 02:59:20;;;;;;;28.60;14.77;;;13.00;99.70;;;12.41;91.17;100237.47;4954072;29;20178;-86
2020/12/23 03:01:47;;;;;;;25.85;13.73;;;13.00;99.70;;;12.42;90.40;100236.44;4953399;28;20239;-86
2020/12/23 03:04:13;;;;;;;27.52;14.13;;;13.00;99.70;;;12.43;90.28;100238.13;4953692;29;20093;-86
2020/12/23 03:06:40;;;;;;;27.30;13.55;;;13.00;99.70;;;12.42;90.70;100239.16;4953504;29;20126;-86
2020/12/23 03:09:10;;;;;;;22.63;13.57;;;13.00;99.70;;;12.42;90.63;100241.06;4953682;29;20071;-86
2020/12/23 03:11:37;;;;;;;25.52;13.68;;;13.00;99.70;;;12.43;90.42;100240.00;4953397;28;20134;-86
2020/12/23 03:14:05;;;;;;;27.90;14.20;;;13.00;99.70;;;12.42;90.32;100239.16;4953450;28;20122;-85
2020/12/23 03:16:33;;;;;;;27.00;15.20;;;13.00;99.70;;;12.42;90.79;100241.91;4953251;29;20082;-86
2020/12/23 03:19:00;;;;;;;25.25;15.38;;;13.00;99.70;;;12.41;90.59;100237.47;4953804;29;20047;-86
2020/12/23 03:21:26;;;;;;;27.23;14.85;;;13.00;99.80;;;12.42;90.43;100233.72;4953400;28;20078;-86
2020/12/23 03:23:53;;;;;;;29.27;15.48;;;13.00;99.80;;;12.41;90.88;100226.56;4938158;28;20086;-86
2020/12/23 03:26:20;;;;;;;25.33;14.90;;;13.00;99.80;;;12.42;90.63;100221.97;4972601;28;20108;-86
2020/12/23 03:28:47;;;;;;;29.08;15.48;;;13.00;99.90;;;12.43;90.59;100218.16;4972965;28;20141;-86
2020/12/23 03:31:15;;;;;;;26.70;14.90;;;13.00;99.80;;;12.42;90.72;100220.06;4972676;28;20077;-86
2020/12/23 03:33:43;;;;;;;29.27;16.58;;;13.00;99.80;;;12.42;90.66;100211.03;4972569;28;20050;-86
2020/12/23 03:36:10;;;;;;;29.85;15.82;;;13.10;99.80;;;12.42;90.45;100206.41;4971421;28;20078;-86
2020/12/23 03:38:37;;;;;;;28.90;15.65;;;13.00;99.80;;;12.45;90.42;100214.22;4972550;28;20039;-86
2020/12/23 03:41:04;;;;;;;30.75;17.55;;;13.00;99.80;;;12.46;90.24;100207.69;4972387;28;20122;-86
2020/12/23 03:43:31;;;;;;;25.33;15.30;;;13.00;99.90;;;12.44;90.96;100206.22;4972232;28;20197;-86
2020/12/23 03:45:57;;;;;;;31.63;16.42;;;13.00;99.80;;;12.42;90.72;100211.88;4972594;28;20129;-86
2020/12/23 03:48:25;;;;;;;27.42;16.33;;;13.00;99.80;;;12.43;90.30;100219.03;4972638;28;20070;-86
2020/12/23 03:50:52;;;;;;;31.02;17.73;;;13.00;99.80;;;12.40;91.04;100229.50;4972555;28;20159;-86
2020/12/23 03:53:19;;;;;;;30.63;17.67;;;13.00;99.80;;;12.41;91.13;100223.00;4972437;28;20139;-86
2020/12/23 03:55:46;;;;;;;29.05;17.02;;;13.00;99.80;;;12.42;90.54;100217.34;4972501;28;20130;-86
2020/12/23 03:58:13;;;;;;;29.30;17.52;;;13.00;99.70;;;12.41;90.99;100210.19;4972436;28;20125;-86
2020/12/23 04:00:40;;;;;;;29.42;17.05;;;13.00;99.80;;;12.42;90.67;100211.03;4972492;28;20511;-86
2020/12/23 04:03:06;;;;;;;28.25;16.92;;;13.00;99.90;;;12.44;90.37;100209.78;4972216;28;20053;-86
2020/12/23 04:05:33;;;;;;;27.33;17.25;;;13.00;99.80;;;12.44;91.03;100200.75;4972616;28;20046;-86
2020/12/23 04:08:01;;;;;;;29.75;17.27;;;13.00;99.80;;;12.44;90.66;100198.88;4972308;28;20507;-86
2020/12/23 04:10:27;;;;;;;29.33;16.63;;;13.00;99.90;;;12.45;90.72;100196.97;4971085;28;20047;-86
2020/12/23 04:12:54;;;;;;;28.88;16.73;;;13.00;99.80;;;12.44;90.65;100185.22;4971957;28;20047;-86
2020/12/23 04:15:21;;;;;;;25.20;15.23;;;13.00;99.70;;;12.46;90.48;100188.56;4972234;28;20069;-86
2020/12/23 04:17:48;;;;;;;29.52;17.10;;;13.00;99.70;;;12.45;90.52;100195.09;4972267;28;20530;-86
2020/12/23 04:20:14;;;;;;;24.95;14.98;;;13.00;99.70;;;12.47;90.45;100194.88;4972022;28;20463;-86
2020/12/23 04:22:41;;;;;;;28.42;16.30;;;13.00;99.80;;;12.44;91.10;100198.88;4971671;28;20181;-86
2020/12/23 04:25:09;;;;;;;26.35;16.08;;;13.00;99.90;;;12.44;91.17;100208.94;4972456;28;20097;-86
2020/12/23 04:27:37;;;;;;;26.08;15.30;;;13.00;99.90;;;12.43;90.99;100202.66;4973882;28;20078;-86
2020/12/23 04:30:05;;;;;;;26.95;14.18;;;13.10;99.90;;;12.44;91.16;100201.59;4975934;28;20130;-86
2020/12/23 04:32:32;;;;;;;24.52;14.85;;;13.00;99.90;;;12.44;90.97;100198.88;4973953;28;20089;-86
2020/12/23 04:35:02;;;;;;;28.25;15.82;;;13.00;99.90;;;12.45;91.11;100199.69;4975681;28;20080;-86
2020/12/23 04:37:28;;;;;;;26.15;14.63;;;13.00;99.80;;;12.45;90.69;100197.84;4975769;28;20125;-86
2020/12/23 04:39:56;;;;;;;22.77;13.52;;;13.00;99.80;;;12.45;91.19;100194.25;4975595;28;20137;-86
2020/12/23 04:42:24;;;;;;;25.00;14.25;;;13.00;99.80;;;12.45;90.78;100200.56;4975145;28;20074;-86
2020/12/23 04:44:52;;;;;;;26.80;14.43;;;13.00;99.90;;;12.44;90.80;100196.13;4975545;28;20139;-86
2020/12/23 04:47:24;;;;;;;21.70;12.52;;;13.10;99.90;;;12.45;91.11;100200.56;4975285;28;20129;-86
2020/12/23 04:49:55;;;;;;;26.60;13.05;;;13.00;99.80;;;12.43;91.04;100191.75;4975309;28;20507;-86
2020/12/23 04:52:34;;;;;;;19.95;13.40;;;13.00;99.90;;;12.43;91.08;100191.75;4975016;28;20113;-86
2020/12/23 04:55:05;;;;;;;21.50;13.23;;;13.00;99.90;;;12.45;90.75;100195.09;4973782;28;20154;-86
2020/12/23 04:57:35;;;;;;;24.83;13.18;;;13.00;99.90;;;12.45;91.07;100189.66;4975123;28;20500;-86
2020/12/23 05:00:04;;;;;;;19.65;12.73;;;13.00;99.90;;;12.46;91.04;100180.38;4975066;28;20047;-86
2020/12/23 05:02:31;;;;;;;18.88;11.63;;;13.10;99.90;;;12.45;90.78;100195.09;4974765;28;20134;-86
2020/12/23 05:04:58;;;;;;;21.95;12.18;;;13.10;99.90;;;12.47;90.77;100192.16;4975410;28;20070;-86
2020/12/23 05:07:24;;;;;;;24.88;12.68;;;13.00;99.90;;;12.42;91.66;100195.50;4974945;28;20049;-86
2020/12/23 05:09:52;;;;;;;20.70;12.57;;;13.00;99.90;;;12.44;91.03;100192.56;4975092;28;20125;-86
2020/12/23 05:12:19;;;;;;;20.92;11.45;;;13.00;99.90;;;12.42;91.17;100190.03;4974625;28;20042;-86
2020/12/23 05:14:48;;;;;;;19.88;11.18;;;13.10;99.90;;;12.42;91.72;100187.31;4974966;28;20047;-86
2020/12/23 05:17:17;;;;;;;22.58;10.48;;;13.10;99.90;;;12.42;91.87;100183.75;4974962;28;20039;-86
2020/12/23 05:19:46;;;;;;;19.02;10.98;;;13.00;99.80;;;12.44;91.12;100193.41;4975088;28;20047;-86
2020/12/23 05:22:16;;;;;;;19.67;11.60;;;13.10;99.90;;;12.46;91.58;100179.56;4974719;28;20160;-86
2020/12/23 05:24:43;;;;;;;15.82;10.35;;;13.10;99.90;;;12.44;91.81;100184.38;4974605;28;20047;-86
2020/12/23 05:27:10;;;;;;;15.57;9.80;;;13.10;99.90;;;12.41;92.03;100184.78;4974671;28;20051;-86
2020/12/23 05:29:45;;;;;;;18.33;11.50;;;13.10;99.90;;;12.42;91.76;100190.03;4972154;28;20101;-86
2020/12/23 05:32:13;;;;;;;17.08;9.77;;;13.10;99.90;;;12.40;92.06;100186.69;4974401;28;20066;-86
2020/12/23 05:34:42;;;;;;;15.02;9.23;;;13.10;99.90;;;12.43;91.44;100185.41;4974628;28;20073;-86
2020/12/23 05:37:09;;;;;;;17.42;9.85;;;13.10;99.90;;;12.44;91.56;100182.50;4974034;28;20101;-86
2020/12/23 05:39:36;;;;;;;13.10;8.27;;;13.00;99.90;;;12.43;91.63;100178.09;4974064;28;20078;-86
2020/12/23 05:42:03;;;;;;;13.05;8.05;;;13.10;99.90;;;12.42;92.11;100170.09;4974009;28;20141;-86
2020/12/23 05:44:30;;;;;;;10.63;7.18;;;13.10;99.90;;;12.42;91.55;100167.38;4974493;28;20089;-86
2020/12/23 05:46:57;;;;;;;11.98;7.68;;;13.00;99.90;;;12.46;91.43;100165.91;4974141;28;20118;-86
2020/12/23 05:49:26;;;;;;;12.77;7.90;;;13.00;99.90;;;12.45;91.10;100156.88;4974564;28;20400;-86
2020/12/23 05:51:53;;;;;;;12.25;7.20;;;13.00;99.90;;;12.46;91.57;100164.00;4974187;28;20121;-86
2020/12/23 05:54:21;;;;;;;13.35;7.00;;;13.10;99.90;;;12.46;91.23;100169.47;4974359;28;20081;-86
2020/12/23 05:56:52;;;;;;;11.45;6.68;;;13.10;99.90;;;12.47;91.32;100157.53;4974108;28;20077;-85
2020/12/23 05:59:20;;;;;;;;;;;13.00;99.90;;;12.46;91.23;100149.53;4974792;28;20194;-86
2020/12/23 06:01:49;;;;;;;10.90;7.32;;;13.00;99.90;;;12.45;91.54;100140.53;4974016;28;19969;-86
2020/12/23 06:04:17;;;;;;;10.40;7.28;;;13.00;99.90;;;12.45;91.11;100145.09;4973972;28;20039;-86
2020/12/23 06:06:46;;;;;;;14.30;6.82;;;13.00;99.90;;;12.45;91.25;100140.53;4973769;28;20047;-86
2020/12/23 06:09:15;;;;;;;14.55;6.70;;;13.00;99.90;;;12.44;91.16;100138.00;4973913;28;20130;-86
2020/12/23 06:11:47;;;;;;;9.98;6.57;;;13.00;99.90;;;12.45;90.96;100135.06;4971946;28;20504;-86
2020/12/23 06:14:21;;;;;;;11.18;6.45;;;13.00;99.90;;;12.45;91.38;100132.34;4973493;28;20047;-86
2020/12/23 06:16:50;;;;;;;9.45;5.78;;;13.00;99.90;;;12.48;91.27;100134.63;4973770;28;20035;-86
2020/12/23 06:19:36;;;;;;;10.75;6.20;;;13.00;99.90;;;12.47;90.97;100127.50;4973760;28;20125;-86
2020/12/23 06:22:05;;;;;;;8.90;5.95;;;13.00;99.90;;;12.46;91.37;100124.97;4973670;28;20392;-86
2020/12/23 06:24:33;;;;;;;11.13;6.60;;;13.00;99.90;;;12.46;91.53;100119.50;4973724;28;20604;-86
2020/12/23 06:27:03;;;;;;;8.25;5.75;;;13.00;99.90;;;12.47;91.21;100110.25;4973552;28;20043;-86
2020/12/23 06:29:32;;;;;;;8.57;5.78;;;13.00;99.90;;;12.44;91.36;100121.59;4973651;28;20117;-86
2020/12/23 06:32:01;;;;;;;9.25;5.95;;;13.00;99.90;;;12.45;91.24;100113.22;4973419;28;20058;-86
2020/12/23 06:34:29;;;;;;;8.70;5.90;;;13.00;99.90;;;12.45;91.11;100117.81;4973592;28;20566;-86
2020/12/23 06:36:58;;;;;;;10.23;5.90;;;13.00;99.90;;;12.46;91.25;100105.88;4973562;28;20793;-86
2020/12/23 06:39:31;;;;;;;11.07;6.35;;;13.00;99.90;;;12.46;91.23;100103.97;4973453;28;20081;-86
2020/12/23 06:42:45;;;;;;;11.43;6.78;;;13.00;99.90;;;12.46;91.63;100097.69;4973061;28;20415;-86
2020/12/23 06:45:13;;;;;;;9.93;6.72;;;13.00;99.90;;;12.47;90.93;100097.47;4971703;28;20177;-86
2020/12/23 06:47:41;;;;;;;11.98;7.25;;;13.00;99.90;;;12.47;91.09;100086.56;4973136;28;20073;-86
2020/12/23 06:50:31;;;;;;;10.00;7.65;;;13.00;99.90;;;12.48;91.02;100090.13;4972197;28;20070;-86
2020/12/23 06:52:58;;;;;;;11.95;8.50;;;13.00;99.90;;;12.43;91.61;100088.03;4970901;28;20474;-86
2020/12/23 06:55:47;;;;;;;14.02;8.15;;;13.10;99.90;;;12.44;91.56;100097.06;4972839;28;20088;-86
2020/12/23 06:58:39;;;;;;;15.68;8.65;;;13.00;99.90;;;12.45;91.54;100090.53;4973168;28;20125;-86
2020/12/23 07:01:18;;;;;;;11.60;7.53;;;13.00;99.90;;;12.44;91.50;100094.31;4972975;28;20105;-85
2020/12/23 07:03:46;;;;;;;11.95;8.43;;;13.00;99.90;;;12.47;91.39;100102.06;4971551;28;20586;-86
2020/12/23 07:06:29;;;;;;;15.35;9.30;;;13.10;99.90;;;12.46;91.62;100101.25;4973322;28;20083;-86
2020/12/23 07:08:56;;;;;;;13.55;9.80;;;13.10;99.90;;;12.45;91.56;100096.84;4973072;28;20051;-86
2020/12/23 07:11:28;;;;;;;14.45;9.23;;;13.00;99.90;;;12.45;91.61;100095.97;4972933;28;20050;-85
2020/12/23 07:13:58;;;;;;;15.45;9.88;;;13.00;99.90;;;12.44;91.70;100088.88;4972972;28;20153;-86
2020/12/23 07:16:26;;;;;;;14.68;9.50;;;13.10;99.90;;;12.47;91.49;100093.88;4973189;28;20415;-86
2020/12/23 07:18:56;;;;;;;14.10;8.90;;;13.10;99.90;;;12.46;91.80;100093.06;4973300;28;20057;-86
2020/12/23 07:21:26;;;;;;;15.03;9.30;;;13.10;99.90;;;12.48;91.47;100088.22;4972373;28;20050;-86
2020/12/23 07:23:58;;;;;;;14.25;8.73;;;13.10;99.90;;;12.46;91.46;100087.59;4972578;28;20097;-86
2020/12/23 07:26:26;;;;;;;15.52;8.70;;;13.10;99.90;;;12.46;91.96;100081.31;4987461;28;20060;-86
2020/12/23 07:28:53;;;;;;;14.55;9.07;;;13.10;99.90;;;12.47;91.45;100086.56;4991800;28;20050;-86
2020/12/23 07:31:20;;;;;;;13.90;8.73;;;13.10;99.90;;;12.48;91.51;100085.50;4991878;28;20129;-85
2020/12/23 07:33:46;;;;;;;13.57;7.80;;;13.10;99.90;;;12.49;91.64;100094.53;4991941;28;20046;-86
2020/12/23 07:36:13;;;;;;;15.82;8.50;;;13.20;99.90;;;12.48;91.26;100090.97;4992009;28;20502;-86
2020/12/23 07:38:40;;;;;;;11.40;7.35;;;13.10;99.90;;;12.49;91.68;100097.28;4993178;28;20081;-86
2020/12/23 07:41:11;;;;;;;14.00;7.20;;;13.10;99.90;;;12.47;91.83;100092.03;4995086;28;20121;-85
2020/12/23 07:43:38;;;;;;;;;;;13.10;99.90;;;12.49;91.51;100095.38;4995660;28;20046;-85
2020/12/23 07:46:05;;;;;;;13.50;7.95;;;13.20;99.90;;;12.50;91.45;100094.31;4994018;28;20016;-86
2020/12/23 07:48:33;;;;;;;11.80;7.32;;;13.20;99.90;;;12.49;91.59;100098.09;4992832;28;20372;-86
2020/12/23 07:51:00;;;;;;;12.90;6.78;;;13.20;99.90;;;12.50;91.36;100105.22;4992902;28;20652;-87
2020/12/23 07:53:29;;;;;;;11.32;6.97;;;13.20;99.90;;;12.51;91.40;100098.75;4992894;28;20092;-88
2020/12/23 07:56:01;;;;;;;10.13;6.60;;;13.20;99.90;;;12.48;91.74;100093.69;4994338;28;20047;-88
2020/12/23 07:58:28;;;;;;;10.90;6.63;;;13.20;99.90;;;12.50;91.65;100090.75;4995310;28;20418;-88
2020/12/23 08:00:56;;;;;;;11.93;6.82;;;13.20;99.90;;;12.51;91.31;100089.72;4977678;28;20193;-88
2020/12/23 08:03:27;;;;;;;11.93;6.22;;;13.20;99.90;;;12.54;91.25;100089.28;4998220;28;20088;-88
2020/12/23 08:06:06;;;;;;;11.95;5.97;;;13.20;99.90;;;12.52;91.53;100085.94;4980320;28;20050;-90
2020/12/23 08:08:33;;;;;;;10.20;5.10;;;13.10;99.90;;;12.49;91.42;100081.72;4998333;28;20074;-88
2020/12/23 08:11:08;;;;;;;9.52;5.35;;;13.10;99.90;;;12.50;91.41;100086.13;5000021;28;20102;-89
2020/12/23 08:13:34;;;;;;;9.32;4.80;;;13.20;99.90;;;12.52;91.66;100080.47;4982055;28;20051;-88
2020/12/23 08:16:08;;;;;;;10.90;4.78;;;13.20;99.90;;;12.53;91.29;100082.16;4999245;28;20069;-89
2020/12/23 08:18:36;;;;;;;7.80;4.95;;;13.10;99.90;;;12.54;91.19;100091.19;4998258;28;20042;-87
2020/12/23 08:21:07;;;;;;;10.57;5.75;;;13.10;99.90;;;12.55;90.87;100071.03;4995376;28;20106;-87
2020/12/23 08:23:34;;;;;;;8.98;5.47;;;13.10;99.90;;;12.54;91.03;100061.16;4996358;28;20074;-88
2020/12/23 08:26:02;;;;;;;9.80;5.20;;;13.10;99.90;;;12.55;91.18;100065.59;4996529;28;20062;-88
2020/12/23 08:28:29;;;;;;;8.10;3.97;;;13.10;99.90;;;12.55;91.22;100068.31;4997575;28;20043;-90
2020/12/23 08:30:57;;;;;;;7.85;4.15;;;13.10;99.90;;;12.56;91.02;100064.50;4998001;28;20478;-88
2020/12/23 08:33:27;;;;;;;8.95;4.97;;;13.10;99.90;;;12.54;90.91;100062.00;4997704;28;20042;-89
2020/12/23 08:36:03;;;;;;;7.68;4.40;;;13.10;99.90;;;12.55;90.87;100062.84;4996166;28;20691;-87
2020/12/23 08:38:30;;;;;;;12.32;4.32;;;13.20;99.90;;;12.57;90.98;100061.59;4996789;28;20407;-87
2020/12/23 08:40:59;;;;;;;6.47;3.88;;;13.20;99.90;;;12.58;91.20;100059.69;4999433;28;20081;-86
2020/12/23 08:43:28;;;;;;;7.20;3.80;;;13.10;99.90;;;12.56;90.73;100054.44;4999827;28;20066;-86
2020/12/23 08:45:56;;;;;;;7.22;3.70;;;13.10;99.90;;;12.56;90.90;100050.88;4998128;28;20050;-86
2020/12/23 08:48:26;;;;;;;5.57;3.40;;;13.10;99.90;;;12.55;90.68;100046.47;4997629;28;20081;-88
2020/12/23 08:50:55;;;;;;;6.85;3.17;;;13.10;99.90;;;12.57;90.62;100052.56;4995633;28;20157;-89
2020/12/23 08:53:35;;;;;;;5.47;2.85;;;13.10;99.90;;;12.56;90.92;100056.31;4985519;28;20070;-87
2020/12/23 08:56:20;;;;;;;7.22;2.67;;;13.20;99.90;;;12.55;90.87;100051.94;4967401;28;20042;-87
2020/12/23 08:58:49;;;;;;;4.75;2.58;;;13.20;99.90;;;12.56;91.07;100056.31;4977550;28;20159;-88
2020/12/23 09:01:23;;;;;;;4.65;2.72;;;13.10;99.90;;;12.56;90.96;100050.88;4977159;28;20162;-88
2020/12/23 09:03:58;;;;;;;5.15;2.83;;;13.10;99.90;;;12.56;91.06;100059.06;4976641;28;20102;-88
2020/12/23 09:06:25;;;;;;;5.97;2.67;;;13.10;99.90;;;12.54;91.06;100053.81;4975931;28;20101;-88
2020/12/23 09:08:52;;;;;;;5.47;2.40;;;13.10;99.90;;;12.55;91.16;100055.50;4975528;28;20043;-88
2020/12/23 09:11:19;;;;;;;5.00;2.70;;;13.20;99.90;;;12.56;90.78;100053.59;4976443;28;20050;-89
2020/12/23 09:13:46;;;;;;;6.00;2.80;;;13.10;99.90;;;12.55;91.05;100062.84;4976766;28;20106;-88
2020/12/23 09:16:16;;;;;;;4.30;2.28;;;13.10;99.90;;;12.55;91.18;100060.13;4977275;28;20043;-88
2020/12/23 09:18:50;;;;;;;4.85;2.35;;;13.10;99.90;;;12.54;91.52;100069.34;4977098;28;20043;-88
2020/12/23 09:21:19;;;;;;;4.80;2.45;;;13.20;99.90;;;12.54;91.31;100061.16;4977806;28;20062;-88
2020/12/23 09:23:46;;;;;;;3.72;2.25;;;13.20;99.90;;;12.56;91.17;100054.44;4979183;28;20046;-88
2020/12/23 09:26:17;;;;;;;5.20;2.45;;;13.20;99.90;;;12.57;90.84;100055.28;4977469;28;20459;-88
2020/12/23 09:28:44;;;;;;;6.00;2.25;;;13.10;99.90;;;12.56;91.24;100057.16;4960141;28;20069;-88
2020/12/23 09:31:10;;;;;;;5.65;1.90;;;13.20;99.90;;;12.56;91.92;100054.44;4976255;28;20039;-88
2020/12/23 09:33:42;;;;;;;5.80;2.15;;;13.20;99.90;;;12.57;91.36;100049.84;4976456;28;20082;-89
2020/12/23 09:36:08;;;;;;;;;;;13.30;99.90;;;12.59;91.15;100053.19;4977358;28;20755;-88
2020/12/23 09:38:36;;;;;;;4.88;2.10;;;13.30;99.70;;;12.58;91.49;100044.13;4977741;28;19977;-88
2020/12/23 09:41:05;;;;;;;3.55;2.03;;;13.30;99.90;;;12.61;91.11;100042.91;4977774;28;20047;-88
2020/12/23 09:43:34;;;;;;;3.75;2.10;;;13.30;99.90;;;12.61;91.99;100045.63;4959616;28;20115;-87
2020/12/23 09:46:05;;;;;;;4.95;2.10;;;13.40;99.90;;;12.64;91.53;100039.72;4975482;28;20051;-88
2020/12/23 09:48:32;;;;;;;7.68;2.30;;;13.40;99.90;;;12.65;91.62;100047.72;4976968;28;20039;-85
2020/12/23 09:50:59;;;;;;;5.63;2.03;;;13.40;99.90;;;12.65;92.11;100045.00;4981717;28;20078;-85
2020/12/23 09:53:27;;;;;;;3.30;1.88;;;13.50;99.90;;;12.66;92.12;100032.16;4981838;28;20062;-85
2020/12/23 09:55:55;;;;;;;3.42;1.80;;;13.40;99.90;;;12.67;91.81;100017.47;4987879;28;20047;-86
2020/12/23 09:58:22;;;;;;;3.85;1.75;;;13.50;99.80;;;12.67;92.72;100028.41;4980682;28;20062;-85
2020/12/23 10:00:51;;;;;;;4.78;1.95;;;13.50;99.90;;;12.69;92.53;100021.66;4980172;28;20050;-86
2020/12/23 10:03:18;;;;;;;5.00;1.85;;;13.50;99.90;;;12.69;92.50;100009.91;4980650;28;20055;-85
2020/12/23 10:05:44;;;;;;;3.78;1.73;;;13.50;99.90;;;12.70;92.11;100017.91;4982049;28;20097;-85
2020/12/23 10:08:12;;;;;;;5.43;1.70;;;13.50;99.70;;;12.71;92.02;100013.28;4981537;28;20079;-86
2020/12/23 10:10:39;;;;;;;4.70;1.85;;;13.50;99.50;;;12.73;92.22;100011.16;4980735;28;20113;-86
2020/12/23 10:13:07;;;;;;;5.63;1.80;;;13.50;99.80;;;12.74;91.68;100007.41;4980639;28;20129;-85